This demonstration page uses our WeatherBlox Daily Observations layout. Learn more.

38.88101, -77.10428

Hourly Observations for August 28, 2017

Temp ( °F °C ) Dew Point ( °F °C ) Humidity (%) Winds ( mph kmh ) Pressure ( in mb ) Visibility ( mi km ) Precip ( " mm )
12:52 am 00:52 Partly Cloudy 68 20 59 15 73 73 E 5 7 30.22 1023 10 16.0934 0 0
1:52 am 01:52 Partly Cloudy 67 19.4 60 15.6 79 79 NE 8 13 30.2 1023 10 16.0934 0 0
2:52 am 02:52 Partly Cloudy 66 18.9 59 15 78 78 N 6 9 30.2 1023 10 16.0934 0 0
3:52 am 03:52 Mostly Cloudy 67 19.4 59 15 76 76 NE 6 9 30.2 1023 10 16.0934 0 0
4:52 am 04:52 Partly Cloudy 67 19.4 59 15 76 76 NNE 6 9 30.22 1023 10 16.0934 0 0
5:52 am 05:52 Partly Cloudy 65 18.3 59 15 81 81 NE 8 13 30.22 1024 10 16.0934 0 0
6:52 am 06:52 Mostly Cloudy 64 17.8 60 15.6 87 87 ENE 10 17 30.23 1024 10 16.0934 0 0
7:52 am 07:52 Mostly Cloudy 65 18.3 59 15 81 81 NNE 10 17 30.22 1023 10 16.0934 0 0
8:52 am 08:52 Mostly Cloudy 68 20 60 15.6 76 76 NNE 9 15 30.24 1024 10 16.0934 0 0
9:52 am 09:52 Mostly Cloudy 71 21.7 60 15.6 68 68 NE 8 13 30.24 1024 10 16.0934 0 0
10:52 am 10:52 Cloudy 73 22.8 60 15.6 64 64 ENE 17 28 30.23 1024 10 16.0934 0 0
11:52 am 11:52 Cloudy 74 23.3 58 14.4 57 57 E 15 24 30.23 1024 10 16.0934 0 0
12:52 pm 12:52 Cloudy 76 24.4 58 14.4 54 54 E 15 24 30.21 1023 10 16.0934 0 0
1:52 pm 13:52 Cloudy 76 24.4 57 13.9 52 52 ENE 12 19 30.21 1023 10 16.0934 0 0
2:52 pm 14:52 Cloudy 77 25 56 13.3 48 48 E 7 11 30.19 1022 10 16.0934 0 0
3:52 pm 15:52 Mostly Cloudy 78 25.6 58 14.4 50 50 E 16 26 30.18 1022 10 16.0934 0 0
4:52 pm 16:52 Mostly Cloudy 76 24.4 59 15 56 56 E 15 24 30.19 1022 10 16.0934 0 0
5:52 pm 17:52 Mostly Cloudy 75 23.9 58 14.4 55 55 E 16 26 30.18 1022 10 16.0934 0 0
6:52 pm 18:52 Cloudy 73 22.8 58 14.4 59 59 E 15 24 30.19 1022 10 16.0934 0 0
7:52 pm 19:52 Cloudy 72 22.2 56 13.3 57 57 E 13 20 30.2 1023 10 16.0934 0 0
8:52 pm 20:52 Cloudy 70 21.1 57 13.9 64 64 E 8 13 30.2 1023 10 16.0934 0 0
9:52 pm 21:52 Cloudy 70 21.1 57 13.9 64 64 ENE 9 15 30.19 1022 10 16.0934 0 0
10:52 pm 22:52 Cloudy 69 20.6 57 13.9 66 66 ENE 8 13 30.19 1023 10 16.0934 0 0
11:52 pm 23:52 Cloudy 69 20.6 58 14.4 68 68 E 8 13 30.18 1022 10 16.0934 0 0

Powered by AerisWeather